Time;durP1;ratioP1;P1;durP2;ratioP2;P2;SDS_P1;SDS_P2;PMS_P1;PMS_P2;Temp;Humidity;BMP_temperature;BMP_pressure;BME280_temperature;BME280_humidity;BME280_pressure;Samples;Min_cycle;Max_cycle;Signal;HPM_P1;HPM_P2
2023/03/03 00:00:47;;;;;;;78.37;27.53;;;1.20;99.90;;;;;;4957779;28;20235;-84
2023/03/03 00:03:17;;;;;;;59.43;27.47;;;1.30;99.90;;;;;;4964582;28;20270;-84
2023/03/03 00:05:43;;;;;;;67.63;28.27;;;1.30;99.90;;;;;;4950927;28;20649;-81
2023/03/03 00:08:09;;;;;;;63.13;26.03;;;1.40;99.90;;;;;;4963765;28;20198;-80
2023/03/03 00:10:35;;;;;;;53.72;28.38;;;1.40;99.90;;;;;;4963214;28;20966;-82
2023/03/03 00:13:01;;;;;;;63.60;30.25;;;1.50;99.90;;;;;;4962930;28;20219;-83
2023/03/03 00:15:29;;;;;;;73.47;27.93;;;1.50;99.90;;;;;;4960204;28;20228;-83
2023/03/03 00:17:55;;;;;;;67.22;28.42;;;1.50;99.90;;;;;;4958554;28;20447;-82
2023/03/03 00:20:33;;;;;;;69.47;29.50;;;1.60;99.90;;;;;;4961996;28;20212;-85
2023/03/03 00:23:22;;;;;;;64.68;26.42;;;1.70;99.90;;;;;;4972249;28;20181;-80
2023/03/03 00:25:51;;;;;;;68.28;29.13;;;1.70;99.90;;;;;;4961609;28;20176;-83
2023/03/03 00:28:39;;;;;;;71.00;28.40;;;1.60;99.90;;;;;;4951454;28;20199;-82
2023/03/03 00:31:25;;;;;;;57.05;29.05;;;1.60;99.90;;;;;;4954788;28;20188;-79
2023/03/03 00:33:53;;;;;;;61.30;26.25;;;1.60;99.90;;;;;;4951722;28;20190;-82
2023/03/03 00:36:31;;;;;;;66.55;26.63;;;1.50;99.90;;;;;;4946575;28;20273;-80
2023/03/03 00:39:12;;;;;;;65.95;26.65;;;1.50;99.90;;;;;;4964077;28;20214;-82
2023/03/03 00:41:38;;;;;;;52.35;25.23;;;1.40;99.90;;;;;;4956131;28;20865;-80
2023/03/03 00:44:41;;;;;;;58.40;25.27;;;1.20;99.90;;;;;;4952780;28;20218;-82
2023/03/03 00:47:28;;;;;;;56.05;25.35;;;1.10;99.90;;;;;;4956348;28;20182;-81
2023/03/03 00:50:06;;;;;;;62.10;25.73;;;1.10;99.90;;;;;;4951670;28;20203;-82
2023/03/03 00:52:37;;;;;;;61.60;25.25;;;1.00;99.90;;;;;;4955752;28;20190;-83
2023/03/03 00:55:04;;;;;;;65.95;28.80;;;1.00;99.90;;;;;;4979549;28;20202;-84
2023/03/03 00:57:30;;;;;;;77.10;30.05;;;0.90;99.90;;;;;;4963917;28;20218;-84
2023/03/03 00:59:56;;;;;;;57.35;26.00;;;0.90;99.90;;;;;;4961176;28;20207;-80
2023/03/03 01:02:21;;;;;;;54.07;26.33;;;1.00;99.90;;;;;;4966237;28;21725;-82
2023/03/03 01:04:55;;;;;;;64.30;26.07;;;0.80;99.90;;;;;;4964357;28;20889;-85
2023/03/03 01:07:20;;;;;;;54.35;24.25;;;0.70;99.90;;;;;;4964243;28;20183;-84
2023/03/03 01:09:46;;;;;;;63.37;27.40;;;0.60;99.90;;;;;;4973277;28;20218;-82
2023/03/03 01:12:11;;;;;;;69.07;28.40;;;0.80;99.90;;;;;;4976163;28;20472;-86
2023/03/03 01:14:37;;;;;;;67.37;25.83;;;0.80;99.90;;;;;;4992178;23;20233;-85
2023/03/03 01:17:04;;;;;;;74.45;29.83;;;0.90;99.90;;;;;;5001312;28;20183;-85
2023/03/03 01:19:29;;;;;;;58.30;26.80;;;0.90;99.90;;;;;;4996417;28;20649;-84
2023/03/03 01:21:55;;;;;;;55.60;26.33;;;0.90;99.90;;;;;;5021074;28;20215;-85
2023/03/03 01:24:20;;;;;;;50.03;25.77;;;0.90;99.90;;;;;;5018874;28;20186;-84
2023/03/03 01:26:46;;;;;;;59.10;26.17;;;;;;;;;;4994623;28;20186;-84
2023/03/03 01:29:12;;;;;;;62.03;27.80;;;0.70;99.90;;;;;;5014847;28;20186;-84
2023/03/03 01:31:38;;;;;;;54.47;23.73;;;0.70;99.90;;;;;;5009735;28;20500;-84
2023/03/03 01:34:06;;;;;;;61.95;25.80;;;0.60;99.90;;;;;;5002810;28;20203;-85
2023/03/03 01:36:31;;;;;;;64.38;24.33;;;0.60;99.90;;;;;;5008335;28;20663;-84
2023/03/03 01:38:57;;;;;;;55.77;25.50;;;0.50;99.90;;;;;;5021556;28;20198;-84
2023/03/03 01:41:22;;;;;;;60.53;25.93;;;0.40;99.90;;;;;;5019117;28;20192;-85
2023/03/03 01:43:49;;;;;;;69.63;27.40;;;0.40;99.90;;;;;;4991518;28;20294;-84
2023/03/03 01:46:38;;;;;;;53.70;23.90;;;0.50;99.90;;;;;;4989532;28;20187;-84
2023/03/03 01:49:13;;;;;;;52.53;24.50;;;0.50;99.90;;;;;;5009942;28;20760;-84
2023/03/03 01:51:49;;;;;;;62.28;25.88;;;0.50;99.90;;;;;;5023738;28;20702;-83
2023/03/03 01:54:24;;;;;;;61.00;24.95;;;0.50;99.90;;;;;;5017833;28;20198;-83
2023/03/03 01:56:52;;;;;;;51.13;26.10;;;0.40;99.90;;;;;;4994289;28;20179;-82
2023/03/03 01:59:21;;;;;;;57.08;22.35;;;0.40;99.90;;;;;;4994749;28;20229;-82
2023/03/03 02:01:48;;;;;;;60.40;24.10;;;0.50;99.90;;;;;;5006926;28;20204;-82
2023/03/03 02:04:14;;;;;;;52.67;22.75;;;0.30;99.90;;;;;;4988908;28;20195;-82
2023/03/03 02:06:44;;;;;;;58.15;24.27;;;0.20;99.90;;;;;;5016975;28;20181;-82
2023/03/03 02:09:20;;;;;;;52.30;24.10;;;0.30;99.90;;;;;;5014760;28;20218;-82
2023/03/03 02:11:49;;;;;;;49.08;22.33;;;0.30;99.90;;;;;;5019221;28;20181;-83
2023/03/03 02:14:15;;;;;;;57.78;23.55;;;0.30;99.90;;;;;;5013761;28;20205;-83
2023/03/03 02:16:40;;;;;;;59.97;23.93;;;0.30;99.90;;;;;;5014974;28;20186;-84
2023/03/03 02:19:20;;;;;;;64.23;25.20;;;0.30;99.90;;;;;;5011249;28;20209;-85
2023/03/03 02:21:46;;;;;;;69.05;26.30;;;0.30;99.90;;;;;;5013950;28;20178;-86
2023/03/03 02:24:24;;;;;;;54.40;22.13;;;0.30;99.90;;;;;;5017293;28;20209;-85
2023/03/03 02:26:49;;;;;;;45.75;21.80;;;0.30;99.90;;;;;;4993897;28;20233;-86
2023/03/03 02:29:15;;;;;;;59.77;22.40;;;0.20;99.90;;;;;;5018744;28;20191;-86
2023/03/03 02:31:41;;;;;;;48.10;22.63;;;0.20;99.90;;;;;;5004080;28;20531;-86
2023/03/03 02:34:07;;;;;;;64.22;28.02;;;0.20;99.90;;;;;;5005609;28;20203;-85
2023/03/03 02:36:36;;;;;;;58.40;27.43;;;0.20;99.90;;;;;;5005301;28;20174;-85
2023/03/03 02:39:08;;;;;;;53.30;22.40;;;0.20;99.90;;;;;;4989141;28;20217;-86
2023/03/03 02:41:50;;;;;;;54.17;21.55;;;0.20;99.90;;;;;;5014480;28;20208;-86
2023/03/03 02:44:23;;;;;;;55.00;23.08;;;0.10;99.90;;;;;;5018685;28;20178;-84
2023/03/03 02:46:51;;;;;;;60.40;24.92;;;0.10;99.90;;;;;;4999402;28;20182;-83
2023/03/03 02:49:22;;;;;;;45.38;21.10;;;0.40;99.90;;;;;;5001104;28;20187;-85
2023/03/03 02:51:48;;;;;;;51.85;22.35;;;0.10;99.90;;;;;;5019928;28;20611;-85
2023/03/03 02:54:16;;;;;;;65.30;25.05;;;0.10;99.90;;;;;;4997638;28;20273;-85
2023/03/03 02:56:42;;;;;;;53.00;24.80;;;0.10;99.90;;;;;;5019464;28;20175;-84
2023/03/03 02:59:08;;;;;;;50.87;24.07;;;0.00;99.90;;;;;;5020980;28;20206;-85
2023/03/03 03:01:37;;;;;;;62.93;23.23;;;-0.10;99.90;;;;;;4994905;28;20433;-84
2023/03/03 03:04:17;;;;;;;53.75;25.40;;;0.00;99.90;;;;;;5019873;28;20652;-86
2023/03/03 03:06:44;;;;;;;61.83;26.65;;;0.00;99.90;;;;;;5026509;28;20193;-85
2023/03/03 03:09:11;;;;;;;74.40;25.33;;;0.00;99.90;;;;;;5008749;28;20254;-86
2023/03/03 03:11:37;;;;;;;64.00;25.98;;;-0.10;99.90;;;;;;5009163;28;20714;-85
2023/03/03 03:14:07;;;;;;;74.63;26.45;;;-0.10;99.90;;;;;;5009931;28;20229;-85
2023/03/03 03:16:33;;;;;;;59.63;27.30;;;0.00;99.90;;;;;;5028284;28;20182;-87
2023/03/03 03:19:00;;;;;;;61.42;27.58;;;0.00;99.90;;;;;;5000236;28;20198;-87
2023/03/03 03:21:26;;;;;;;70.60;28.17;;;0.00;99.90;;;;;;4999588;28;20171;-86
2023/03/03 03:23:51;;;;;;;59.27;25.03;;;-0.10;99.90;;;;;;4996758;28;21589;-86
2023/03/03 03:26:19;;;;;;;57.77;26.60;;;-0.10;99.90;;;;;;5011745;28;20822;-86
2023/03/03 03:28:46;;;;;;;56.35;27.48;;;-0.10;99.90;;;;;;5034563;28;20189;-86
2023/03/03 03:31:11;;;;;;;57.00;24.55;;;-0.10;99.90;;;;;;5027424;28;20184;-86
2023/03/03 03:33:37;;;;;;;70.40;28.93;;;-0.20;99.90;;;;;;5045164;28;20178;-86
2023/03/03 03:36:03;;;;;;;65.50;29.77;;;-0.20;99.90;;;;;;5026737;28;20245;-85
2023/03/03 03:38:30;;;;;;;78.63;29.40;;;-0.20;99.90;;;;;;5044581;28;20192;-86
2023/03/03 03:40:56;;;;;;;63.92;26.25;;;-0.30;99.90;;;;;;5043699;28;20166;-85
2023/03/03 03:43:21;;;;;;;69.65;29.05;;;-1.00;99.90;;;;;;5015760;28;20246;-85
2023/03/03 03:45:47;;;;;;;62.73;27.77;;;-0.40;99.90;;;;;;4997195;28;20183;-86
2023/03/03 03:48:14;;;;;;;65.03;25.80;;;-0.40;99.90;;;;;;5022083;28;20186;-86
2023/03/03 03:50:40;;;;;;;73.25;29.13;;;-0.40;99.90;;;;;;5025101;28;20178;-84
2023/03/03 03:53:06;;;;;;;86.50;34.73;;;-0.40;99.90;;;;;;5006616;28;20185;-84
2023/03/03 03:55:32;;;;;;;78.90;30.08;;;-0.50;99.90;;;;;;5010994;28;20198;-87
2023/03/03 03:57:57;;;;;;;73.53;30.53;;;-0.50;99.90;;;;;;5006917;28;20186;-87
2023/03/03 04:00:24;;;;;;;70.40;29.20;;;;;;;;;;5015422;28;20410;-86
2023/03/03 04:02:49;;;;;;;76.00;29.10;;;-0.60;99.90;;;;;;5034324;28;20175;-87
2023/03/03 04:05:15;;;;;;;73.27;31.07;;;-0.60;99.90;;;;;;5023352;28;20194;-84
2023/03/03 04:07:41;;;;;;;71.23;30.17;;;-0.60;99.90;;;;;;5024289;28;20205;-86
2023/03/03 04:10:07;;;;;;;62.43;26.53;;;-0.60;99.90;;;;;;5020525;28;20568;-85
2023/03/03 04:12:37;;;;;;;67.28;27.58;;;-0.60;99.90;;;;;;5022835;28;20178;-86
2023/03/03 04:15:05;;;;;;;66.30;28.77;;;-0.60;99.90;;;;;;5022234;28;20210;-85
2023/03/03 04:17:31;;;;;;;58.67;27.92;;;-0.60;99.90;;;;;;5007307;28;20175;-87
2023/03/03 04:19:56;;;;;;;65.93;27.97;;;-0.50;99.90;;;;;;5021696;28;20302;-86
2023/03/03 04:22:22;;;;;;;72.70;27.60;;;-0.50;99.90;;;;;;5011976;28;20170;-86
2023/03/03 04:24:47;;;;;;;62.20;27.67;;;-0.40;99.90;;;;;;5013837;28;20199;-86
2023/03/03 04:27:14;;;;;;;69.50;28.23;;;-0.40;99.90;;;;;;5026772;28;20197;-86
2023/03/03 04:29:40;;;;;;;68.07;26.73;;;-0.20;99.90;;;;;;5002991;28;20187;-85
2023/03/03 04:32:06;;;;;;;71.43;28.40;;;-0.10;99.90;;;;;;5015400;28;20185;-85
2023/03/03 04:34:32;;;;;;;56.07;25.27;;;0.10;99.90;;;;;;5007173;28;20746;-86
2023/03/03 04:36:57;;;;;;;73.50;30.37;;;0.10;99.90;;;;;;5007906;28;20185;-85
2023/03/03 04:39:23;;;;;;;69.00;28.90;;;0.30;99.90;;;;;;5023700;28;20234;-85
2023/03/03 04:41:48;;;;;;;73.87;30.23;;;0.40;99.90;;;;;;5022007;28;20227;-86
2023/03/03 04:44:14;;;;;;;84.03;33.10;;;0.50;99.90;;;;;;5021170;28;20233;-86
2023/03/03 04:46:39;;;;;;;65.40;28.50;;;0.70;99.90;;;;;;5006082;28;20182;-85
2023/03/03 04:49:07;;;;;;;69.37;29.00;;;0.80;99.90;;;;;;4991844;28;20202;-85
2023/03/03 04:51:33;;;;;;;90.35;31.98;;;0.90;99.90;;;;;;5002868;28;20211;-85
2023/03/03 04:53:58;;;;;;;76.27;35.00;;;1.00;99.90;;;;;;5011523;28;20292;-86
2023/03/03 04:56:24;;;;;;;69.20;31.47;;;1.10;99.90;;;;;;5008132;28;20773;-86
2023/03/03 04:58:49;;;;;;;77.67;31.80;;;1.30;99.90;;;;;;4998491;28;20274;-84
2023/03/03 05:01:15;;;;;;;73.40;32.17;;;1.30;99.90;;;;;;5004655;28;20198;-84
2023/03/03 05:03:41;;;;;;;55.50;26.40;;;1.40;99.90;;;;;;5006321;28;20163;-85
2023/03/03 05:06:07;;;;;;;53.77;26.93;;;1.40;99.90;;;;;;5025389;28;20176;-84
2023/03/03 05:08:32;;;;;;;66.07;29.98;;;1.50;99.90;;;;;;5003984;28;20170;-84
2023/03/03 05:10:58;;;;;;;66.37;29.20;;;1.60;99.90;;;;;;5005577;28;20185;-84
2023/03/03 05:13:26;;;;;;;71.13;29.98;;;1.20;99.90;;;;;;5004248;28;20205;-84
2023/03/03 05:15:54;;;;;;;64.38;30.75;;;1.20;99.90;;;;;;5022561;28;20193;-85
2023/03/03 05:18:20;;;;;;;69.15;29.08;;;1.30;99.90;;;;;;5003213;28;20470;-86
2023/03/03 05:20:46;;;;;;;70.68;31.83;;;1.50;99.90;;;;;;4999226;28;20197;-88
2023/03/03 05:23:11;;;;;;;82.67;32.40;;;1.60;99.90;;;;;;4992290;28;20183;-86
2023/03/03 05:25:40;;;;;;;70.90;31.03;;;1.70;99.90;;;;;;4993665;28;20543;-88
2023/03/03 05:28:06;;;;;;;85.07;32.95;;;1.80;99.90;;;;;;4996047;28;20190;-86
2023/03/03 05:30:31;;;;;;;73.97;32.93;;;2.00;99.90;;;;;;5019477;28;20190;-86
2023/03/03 05:32:58;;;;;;;71.30;32.50;;;2.00;99.90;;;;;;5010851;28;20190;-89
2023/03/03 05:35:24;;;;;;;69.05;30.77;;;2.00;99.90;;;;;;4993525;28;20191;-85
2023/03/03 05:37:51;;;;;;;81.27;31.70;;;2.00;99.90;;;;;;4997619;28;20174;-84
2023/03/03 05:40:17;;;;;;;71.43;31.40;;;2.10;99.90;;;;;;5019639;28;20281;-84
2023/03/03 05:42:43;;;;;;;60.63;27.23;;;2.20;99.90;;;;;;5000650;28;20250;-84
2023/03/03 05:45:09;;;;;;;61.23;28.00;;;2.30;99.90;;;;;;5018470;28;20218;-84
2023/03/03 05:47:35;;;;;;;62.75;27.92;;;2.40;99.90;;;;;;5001784;28;20163;-83
2023/03/03 05:50:00;;;;;;;78.43;31.23;;;2.50;99.90;;;;;;5000604;28;20179;-82
2023/03/03 05:52:26;;;;;;;68.77;29.80;;;2.50;99.90;;;;;;5017153;28;20258;-81
2023/03/03 05:54:51;;;;;;;74.50;28.17;;;2.50;99.90;;;;;;4995963;28;20198;-82
2023/03/03 05:57:17;;;;;;;72.90;30.87;;;2.60;99.90;;;;;;5011619;28;20179;-81
2023/03/03 05:59:42;;;;;;;60.57;28.80;;;2.60;99.90;;;;;;5022494;28;20235;-83
2023/03/03 06:02:08;;;;;;;68.00;31.80;;;;;;;;;;5014204;28;20197;-82
2023/03/03 06:04:34;;;;;;;59.80;27.13;;;2.70;99.90;;;;;;5025076;28;20266;-83
2023/03/03 06:07:00;;;;;;;66.83;29.20;;;2.70;99.90;;;;;;5019200;28;20433;-81
2023/03/03 06:09:25;;;;;;;65.70;27.20;;;2.60;99.90;;;;;;5015389;28;20175;-83
2023/03/03 06:11:52;;;;;;;64.40;28.83;;;2.40;99.90;;;;;;4998801;28;20207;-82
2023/03/03 06:14:19;;;;;;;65.55;29.05;;;2.20;99.90;;;;;;5015052;28;20205;-82
2023/03/03 06:16:46;;;;;;;78.35;31.90;;;2.20;99.90;;;;;;5024436;28;20652;-82
2023/03/03 06:19:11;;;;;;;66.32;31.02;;;2.30;99.90;;;;;;5024078;28;20216;-82
2023/03/03 06:21:37;;;;;;;74.07;30.40;;;2.50;99.90;;;;;;5030293;28;20300;-83
2023/03/03 06:24:02;;;;;;;67.63;29.97;;;2.60;99.90;;;;;;5023420;28;20218;-83
2023/03/03 06:26:30;;;;;;;70.83;30.47;;;2.70;99.90;;;;;;4997796;28;20175;-82
2023/03/03 06:28:55;;;;;;;67.68;29.77;;;2.70;99.90;;;;;;5025135;28;20179;-81
2023/03/03 06:31:21;;;;;;;67.23;30.43;;;2.80;99.90;;;;;;4995641;28;20193;-83
2023/03/03 06:33:47;;;;;;;42.37;20.00;;;2.70;99.90;;;;;;4998150;28;20207;-82
2023/03/03 06:36:12;;;;;;;36.07;18.70;;;2.80;99.90;;;;;;4994589;28;20191;-82
2023/03/03 06:38:38;;;;;;;36.03;16.97;;;2.90;99.90;;;;;;5018100;28;20199;-82
2023/03/03 06:41:06;;;;;;;43.67;18.70;;;3.00;99.90;;;;;;4998537;28;20181;-83
2023/03/03 06:43:32;;;;;;;32.17;16.10;;;3.00;99.90;;;;;;4998098;28;20675;-83
2023/03/03 06:45:58;;;;;;;35.83;17.98;;;3.00;99.90;;;;;;5017154;28;21171;-82
2023/03/03 06:48:23;;;;;;;34.63;17.57;;;3.10;99.90;;;;;;5019813;28;20201;-83
2023/03/03 06:50:49;;;;;;;39.13;18.87;;;3.20;99.90;;;;;;5017702;28;20189;-83
2023/03/03 06:53:17;;;;;;;42.83;20.63;;;3.30;99.90;;;;;;5017191;28;20182;-82
2023/03/03 06:55:43;;;;;;;41.88;20.80;;;3.40;99.90;;;;;;5015054;28;20755;-83
2023/03/03 06:58:15;;;;;;;34.97;16.65;;;3.50;99.90;;;;;;5014563;28;20875;-82
2023/03/03 07:00:45;;;;;;;37.25;18.55;;;3.80;99.90;;;;;;4992418;28;20170;-83
2023/03/03 07:03:17;;;;;;;44.40;17.95;;;3.80;99.90;;;;;;5017351;28;20200;-82
2023/03/03 07:05:43;;;;;;;43.42;18.98;;;3.90;99.90;;;;;;5014224;28;20286;-82
2023/03/03 07:08:15;;;;;;;38.23;17.90;;;4.00;99.90;;;;;;5007602;28;20198;-83
2023/03/03 07:10:42;;;;;;;42.95;20.25;;;4.10;99.90;;;;;;4995585;28;20444;-82
2023/03/03 07:13:23;;;;;;;48.63;20.83;;;4.20;99.90;;;;;;5003286;28;20182;-83
2023/03/03 07:15:52;;;;;;;39.65;20.30;;;4.40;99.90;;;;;;4992591;28;20221;-82
2023/03/03 07:18:36;;;;;;;42.78;20.92;;;4.60;99.90;;;;;;5015100;28;20202;-83
2023/03/03 07:21:18;;;;;;;30.05;16.98;;;4.70;99.90;;;;;;5017088;28;20294;-82
2023/03/03 07:23:45;;;;;;;36.17;16.90;;;4.90;99.90;;;;;;5006869;28;20291;-82
2023/03/03 07:26:32;;;;;;;44.80;19.50;;;5.20;99.90;;;;;;5017532;28;20183;-81
2023/03/03 07:29:15;;;;;;;34.08;15.57;;;5.40;99.90;;;;;;5014268;28;20583;-82
2023/03/03 07:31:44;;;;;;;34.85;18.70;;;5.80;99.90;;;;;;5009121;28;20454;-82
2023/03/03 07:34:22;;;;;;;37.17;20.60;;;6.10;99.90;;;;;;5016705;28;20214;-81
2023/03/03 07:36:52;;;;;;;36.63;18.00;;;6.70;99.90;;;;;;4994046;28;20193;-81
2023/03/03 07:39:24;;;;;;;36.83;19.23;;;8.10;99.90;;;;;;5015851;28;20243;-81
2023/03/03 07:41:50;;;;;;;28.95;16.20;;;8.50;99.90;;;;;;5019736;28;20566;-81
2023/03/03 07:44:33;;;;;;;33.63;18.15;;;8.60;99.90;;;;;;4994628;28;20207;-82
2023/03/03 07:47:06;;;;;;;37.20;17.40;;;9.50;99.90;;;;;;5012120;28;20642;-82
2023/03/03 07:49:37;;;;;;;31.00;15.57;;;10.70;99.90;;;;;;4990633;28;20183;-82
2023/03/03 07:52:24;;;;;;;28.15;15.85;;;12.00;99.90;;;;;;5016341;28;21090;-82
2023/03/03 07:54:51;;;;;;;31.27;16.60;;;13.60;99.90;;;;;;5014439;28;20305;-82
2023/03/03 07:57:21;;;;;;;38.30;18.48;;;13.90;92.10;;;;;;4999881;28;20250;-82
2023/03/03 07:59:49;;;;;;;30.60;16.85;;;14.30;90.20;;;;;;4997814;28;20210;-82
2023/03/03 08:02:27;;;;;;;29.53;16.70;;;15.50;90.10;;;;;;5012144;28;20187;-82
2023/03/03 08:04:54;;;;;;;33.17;19.00;;;16.00;80.00;;;;;;5015519;28;20994;-82
2023/03/03 08:07:21;;;;;;;35.23;18.57;;;16.10;74.10;;;;;;4993593;28;20434;-82
2023/03/03 08:09:50;;;;;;;38.47;19.30;;;17.20;74.70;;;;;;5014947;28;20445;-83
2023/03/03 08:12:29;;;;;;;33.40;18.97;;;18.00;70.00;;;;;;5008914;28;20437;-83
2023/03/03 08:14:57;;;;;;;29.40;16.87;;;18.30;64.60;;;;;;4989569;28;20501;-82
2023/03/03 08:17:25;;;;;;;31.53;18.47;;;17.50;58.90;;;;;;5015917;28;20424;-84
2023/03/03 08:19:53;;;;;;;29.53;18.13;;;16.20;57.60;;;;;;5003658;28;20481;-82
2023/03/03 08:22:29;;;;;;;28.93;18.03;;;15.40;60.20;;;;;;5014255;28;20438;-81
2023/03/03 08:24:54;;;;;;;35.03;17.60;;;15.80;60.60;;;;;;5013336;28;20447;-82
2023/03/03 08:27:20;;;;;;;33.17;18.70;;;16.30;60.90;;;;;;5015628;28;20440;-82
2023/03/03 08:29:45;;;;;;;33.80;18.63;;;16.90;61.20;;;;;;5009791;28;20183;-83
2023/03/03 08:32:11;;;;;;;32.67;17.13;;;17.90;60.30;;;;;;5008899;28;20781;-82
2023/03/03 08:34:36;;;;;;;25.40;16.67;;;17.00;57.20;;;;;;4982748;28;20211;-84
2023/03/03 08:37:02;;;;;;;37.07;17.87;;;17.10;59.00;;;;;;5002641;28;20469;-83
2023/03/03 08:39:27;;;;;;;28.47;17.20;;;18.20;58.40;;;;;;5014181;28;20241;-84
2023/03/03 08:41:53;;;;;;;33.63;17.90;;;18.70;56.60;;;;;;5015565;28;20187;-82
2023/03/03 08:44:19;;;;;;;28.13;16.93;;;18.90;55.10;;;;;;4984243;28;20190;-82
2023/03/03 08:46:45;;;;;;;32.77;18.17;;;18.50;54.50;;;;;;4998113;28;20247;-84
2023/03/03 08:49:10;;;;;;;28.97;17.70;;;18.10;54.10;;;;;;5009444;28;20453;-82
2023/03/03 08:51:36;;;;;;;28.33;16.60;;;17.00;53.00;;;;;;4995381;28;20214;-81
2023/03/03 08:54:01;;;;;;;29.10;16.23;;;16.60;53.90;;;;;;5012670;28;20308;-82
2023/03/03 08:56:27;;;;;;;27.57;16.10;;;16.00;54.50;;;;;;5016556;28;20208;-82
2023/03/03 08:58:52;;;;;;;25.63;16.50;;;16.30;56.50;;;;;;5011896;28;20233;-82
2023/03/03 09:01:18;;;;;;;31.03;18.67;;;16.60;54.90;;;;;;4995954;28;20193;-82
2023/03/03 09:03:44;;;;;;;31.67;17.50;;;16.60;55.30;;;;;;5001475;28;20236;-82
2023/03/03 09:06:10;;;;;;;31.30;17.23;;;16.00;53.50;;;;;;4999568;28;20182;-82
2023/03/03 09:08:36;;;;;;;29.70;16.40;;;15.80;55.60;;;;;;5009690;28;20442;-82
2023/03/03 09:11:02;;;;;;;25.97;17.33;;;16.00;55.90;;;;;;5013395;28;21423;-82
2023/03/03 09:13:30;;;;;;;32.67;18.57;;;14.80;55.70;;;;;;4986454;28;20505;-82
2023/03/03 09:15:57;;;;;;;31.17;17.60;;;14.80;56.20;;;;;;5003120;28;20480;-82
2023/03/03 09:18:36;;;;;;;30.90;17.63;;;14.50;56.90;;;;;;4998485;28;20504;-82
2023/03/03 09:21:15;;;;;;;26.00;16.63;;;14.40;56.60;;;;;;5010990;28;20436;-83
2023/03/03 09:23:45;;;;;;;29.77;16.07;;;15.60;55.70;;;;;;4998788;28;20429;-83
2023/03/03 09:26:42;;;;;;;37.63;18.30;;;15.70;56.40;;;;;;5010270;28;20429;-82
2023/03/03 09:29:13;;;;;;;30.27;15.73;;;15.50;56.60;;;;;;5001908;28;20521;-85
2023/03/03 09:31:46;;;;;;;29.40;16.80;;;16.60;56.70;;;;;;5012510;28;20424;-82
2023/03/03 09:34:36;;;;;;;33.10;18.80;;;15.70;54.00;;;;;;4988655;28;20993;-82
2023/03/03 09:37:20;;;;;;;29.77;16.50;;;15.90;55.40;;;;;;5005338;28;20795;-82
2023/03/03 09:39:49;;;;;;;27.57;16.57;;;15.80;55.50;;;;;;4992735;28;20469;-83
2023/03/03 09:42:42;;;;;;;33.23;19.37;;;15.70;55.80;;;;;;5017006;28;20433;-82
2023/03/03 09:45:29;;;;;;;34.13;16.00;;;16.40;54.40;;;;;;5008437;28;20457;-84
2023/03/03 09:48:23;;;;;;;30.13;18.53;;;15.50;54.60;;;;;;5008822;28;20426;-84
2023/03/03 09:50:51;;;;;;;27.50;16.10;;;14.90;57.00;;;;;;5010407;28;20428;-84
2023/03/03 09:53:43;;;;;;;32.70;17.93;;;14.70;56.70;;;;;;5007782;28;20437;-84
2023/03/03 09:56:38;;;;;;;31.93;17.77;;;14.70;57.10;;;;;;5015928;28;20432;-84
2023/03/03 09:59:42;;;;;;;35.13;18.47;;;15.10;59.30;;;;;;5004914;28;20524;-84
2023/03/03 10:02:07;;;;;;;33.60;19.00;;;;;;;;;;5014003;28;20421;-84
2023/03/03 10:04:44;;;;;;;33.43;18.37;;;14.90;58.40;;;;;;5014697;28;20964;-83
2023/03/03 10:07:31;;;;;;;30.53;17.63;;;14.40;57.10;;;;;;4991241;28;20430;-83
2023/03/03 10:10:18;;;;;;;34.70;17.80;;;14.10;58.50;;;;;;4988985;28;20434;-83
2023/03/03 10:13:10;;;;;;;33.70;18.45;;;13.60;58.60;;;;;;5008166;28;20444;-83
2023/03/03 10:15:40;;;;;;;30.98;17.35;;;12.90;60.60;;;;;;5006114;28;20271;-84
2023/03/03 10:18:23;;;;;;;32.15;18.00;;;11.80;61.70;;;;;;5007272;28;20706;-83
2023/03/03 10:20:57;;;;;;;37.20;19.80;;;11.00;65.00;;;;;;5011783;28;20575;-83
2023/03/03 10:24:04;;;;;;;37.38;19.42;;;10.20;65.50;;;;;;5005469;28;20880;-83
2023/03/03 10:27:11;;;;;;;28.42;17.73;;;10.00;67.30;;;;;;5006228;28;20217;-83
2023/03/03 10:29:49;;;;;;;29.48;16.27;;;9.90;69.30;;;;;;4977728;28;20918;-83
2023/03/03 10:32:27;;;;;;;37.17;20.25;;;9.60;73.60;;;;;;5012169;28;20783;-83
2023/03/03 10:34:59;;;;;;;39.35;18.92;;;8.90;75.50;;;;;;5008904;28;20197;-83
2023/03/03 10:37:36;;;;;;;32.63;18.90;;;8.90;78.50;;;;;;5003504;28;20197;-83
2023/03/03 10:40:31;;;;;;;30.83;16.98;;;9.00;78.90;;;;;;4997251;28;20587;-83
2023/03/03 10:43:34;;;;;;;37.67;20.08;;;9.10;78.70;;;;;;5007373;28;20186;-84
2023/03/03 10:46:14;;;;;;;36.15;18.55;;;9.00;83.50;;;;;;5005961;28;20204;-83
2023/03/03 10:49:04;;;;;;;37.75;19.20;;;9.00;83.70;;;;;;5005155;28;20206;-83
2023/03/03 10:51:39;;;;;;;37.45;18.52;;;8.90;85.20;;;;;;5005418;28;20175;-83
2023/03/03 10:54:37;;;;;;;33.75;17.98;;;9.10;85.80;;;;;;5011786;28;20552;-83
2023/03/03 10:57:40;;;;;;;36.47;19.05;;;9.40;84.60;;;;;;5006801;28;20301;-83
2023/03/03 11:00:36;;;;;;;35.17;18.80;;;9.40;85.30;;;;;;4939287;28;20204;-83
2023/03/03 11:03:32;;;;;;;36.47;18.35;;;9.70;84.80;;;;;;5005722;28;20179;-84
2023/03/03 11:06:04;;;;;;;30.30;17.50;;;10.10;81.50;;;;;;4990973;28;20189;-83
2023/03/03 11:08:40;;;;;;;34.75;19.55;;;10.10;80.90;;;;;;5008780;28;20257;-83
2023/03/03 11:11:18;;;;;;;35.40;18.50;;;10.20;81.40;;;;;;5003699;28;20182;-83
2023/03/03 11:13:56;;;;;;;33.92;19.33;;;10.10;83.40;;;;;;5006524;28;20699;-83
2023/03/03 11:16:34;;;;;;;33.47;18.02;;;10.40;83.70;;;;;;5006515;28;20197;-83
2023/03/03 11:19:24;;;;;;;39.03;20.55;;;9.80;82.90;;;;;;5007043;28;20497;-83
2023/03/03 11:22:22;;;;;;;37.88;19.35;;;9.50;84.00;;;;;;5008128;28;20287;-84
2023/03/03 11:24:54;;;;;;;36.58;18.52;;;8.70;85.40;;;;;;5007768;28;20198;-83
2023/03/03 11:27:23;;;;;;;35.70;19.90;;;8.60;88.50;;;;;;5008669;28;20194;-83
2023/03/03 11:30:23;;;;;;;39.33;22.08;;;8.80;89.90;;;;;;5008880;28;20210;-84
2023/03/03 11:33:08;;;;;;;36.63;18.85;;;8.80;90.50;;;;;;4964883;28;20282;-84
2023/03/03 11:36:02;;;;;;;37.70;20.48;;;9.30;90.20;;;;;;5008303;28;20202;-83
2023/03/03 11:38:41;;;;;;;35.00;19.00;;;9.70;90.90;;;;;;5012848;28;20201;-83
2023/03/03 11:41:38;;;;;;;35.95;18.02;;;9.60;85.60;;;;;;5013012;28;20179;-83
2023/03/03 11:44:19;;;;;;;41.92;19.70;;;9.40;87.60;;;;;;4935788;28;20224;-84
2023/03/03 11:47:04;;;;;;;39.20;20.95;;;9.40;87.70;;;;;;4988783;28;20644;-83
2023/03/03 11:50:04;;;;;;;37.55;19.10;;;9.20;87.00;;;;;;5004829;28;20190;-83
2023/03/03 11:53:08;;;;;;;34.90;19.25;;;9.40;88.10;;;;;;5009004;28;20186;-83
2023/03/03 11:55:40;;;;;;;41.15;20.00;;;9.40;86.70;;;;;;5005921;28;20214;-83
2023/03/03 11:58:30;;;;;;;43.67;20.65;;;9.40;89.10;;;;;;5004079;28;20277;-83
2023/03/03 12:01:28;;;;;;;40.72;19.02;;;9.40;89.40;;;;;;5005773;28;20646;-83
2023/03/03 12:04:02;;;;;;;39.58;19.63;;;9.50;90.10;;;;;;5007308;28;20224;-83
2023/03/03 12:06:32;;;;;;;47.08;22.75;;;9.50;90.00;;;;;;5004085;28;20630;-83
2023/03/03 12:09:36;;;;;;;40.08;21.92;;;9.60;90.70;;;;;;5004882;28;20587;-83
2023/03/03 12:12:16;;;;;;;36.00;19.48;;;9.80;90.20;;;;;;4999593;28;20742;-83
2023/03/03 12:14:52;;;;;;;36.35;21.70;;;10.00;89.80;;;;;;5005233;28;20234;-83
2023/03/03 12:17:42;;;;;;;45.33;21.63;;;10.30;90.10;;;;;;4983214;28;20194;-84
2023/03/03 12:20:26;;;;;;;39.75;20.42;;;10.30;89.80;;;;;;5005800;28;20696;-83
2023/03/03 12:22:58;;;;;;;41.67;21.83;;;10.30;89.00;;;;;;4986835;28;20191;-83
2023/03/03 12:25:32;;;;;;;38.08;20.38;;;10.40;84.90;;;;;;4999089;28;20205;-83
2023/03/03 12:28:07;;;;;;;35.72;19.85;;;10.60;86.30;;;;;;4985876;28;20210;-84
2023/03/03 12:30:56;;;;;;;48.40;21.80;;;10.70;84.90;;;;;;5001367;28;20198;-83
2023/03/03 12:33:27;;;;;;;40.47;20.08;;;11.10;84.90;;;;;;5011682;28;20281;-83
2023/03/03 12:36:09;;;;;;;42.65;20.60;;;10.60;84.20;;;;;;4984384;28;20269;-84
2023/03/03 12:39:12;;;;;;;43.03;20.17;;;10.00;86.20;;;;;;5008603;28;20365;-83
2023/03/03 12:41:55;;;;;;;43.83;20.25;;;9.70;88.50;;;;;;5005712;28;20186;-83
2023/03/03 12:44:48;;;;;;;40.53;21.13;;;9.80;88.00;;;;;;5005689;28;20280;-84
2023/03/03 12:47:26;;;;;;;41.08;20.52;;;9.60;88.50;;;;;;4988734;28;20213;-83
2023/03/03 12:50:10;;;;;;;43.25;21.33;;;9.70;89.80;;;;;;5012684;28;20289;-84
2023/03/03 12:52:57;;;;;;;47.47;19.58;;;9.90;89.60;;;;;;5006401;28;20209;-83
2023/03/03 12:55:33;;;;;;;53.55;22.02;;;10.10;87.30;;;;;;5003145;28;20224;-83
2023/03/03 12:58:24;;;;;;;37.03;21.95;;;10.60;86.90;;;;;;5007697;28;20190;-83
2023/03/03 13:01:17;;;;;;;36.05;19.10;;;10.80;85.00;;;;;;5003656;28;20671;-83